createdAt,value
2023-02-19T00:01:25.930Z,4.61
2023-02-19T00:04:00.095Z,4.59
2023-02-19T00:06:36.555Z,4.54
2023-02-19T00:09:11.202Z,4.50
2023-02-19T00:11:44.488Z,4.47
2023-02-19T00:14:21.470Z,4.42
2023-02-19T00:16:54.262Z,4.35
2023-02-19T00:19:27.068Z,4.31
2023-02-19T00:22:01.247Z,4.27
2023-02-19T00:24:33.971Z,4.26
2023-02-19T00:27:09.493Z,4.26
2023-02-19T00:29:44.166Z,4.28
2023-02-19T00:32:17.096Z,4.28
2023-02-19T00:34:52.770Z,4.27
2023-02-19T00:37:27.024Z,4.26
2023-02-19T00:39:59.853Z,4.24
2023-02-19T00:42:34.819Z,4.26
2023-02-19T00:45:11.234Z,4.26
2023-02-19T00:47:47.082Z,4.28
2023-02-19T00:50:19.994Z,4.29
2023-02-19T00:52:54.151Z,4.29
2023-02-19T00:55:26.996Z,4.28
2023-02-19T00:57:59.792Z,4.24
2023-02-19T01:00:35.622Z,4.20
2023-02-19T01:03:08.394Z,4.16
2023-02-19T01:05:41.166Z,4.14
2023-02-19T01:08:16.527Z,4.08
2023-02-19T01:10:52.822Z,4.04
2023-02-19T01:13:26.217Z,3.98
2023-02-19T01:16:07.253Z,3.93
2023-02-19T01:18:43.215Z,3.88
2023-02-19T01:21:19.638Z,3.85
2023-02-19T01:23:54.299Z,3.84
2023-02-19T01:26:31.780Z,3.81
2023-02-19T01:29:04.744Z,3.80
2023-02-19T01:31:38.926Z,3.78
2023-02-19T01:34:13.227Z,3.77
2023-02-19T01:36:48.499Z,3.76
2023-02-19T01:39:22.833Z,3.78
2023-02-19T01:41:58.685Z,3.79
2023-02-19T01:44:50.430Z,3.78
2023-02-19T01:47:25.575Z,3.75
2023-02-19T01:49:58.761Z,3.74
2023-02-19T01:52:33.361Z,3.73
2023-02-19T01:55:09.468Z,3.72
2023-02-19T01:57:45.002Z,3.73
2023-02-19T02:00:18.201Z,3.71
2023-02-19T02:02:54.693Z,3.71
2023-02-19T02:05:38.256Z,3.72
2023-02-19T02:08:29.117Z,3.69
2023-02-19T02:11:03.532Z,3.69
2023-02-19T02:13:39.043Z,3.71
2023-02-19T02:16:20.852Z,3.72
2023-02-19T02:19:08.618Z,3.75
2023-02-19T02:21:57.100Z,3.79
2023-02-19T02:24:38.509Z,3.83
2023-02-19T02:27:25.821Z,3.86
2023-02-19T02:30:25.439Z,3.89
2023-02-19T02:33:01.507Z,3.91
2023-02-19T02:35:41.010Z,3.93
2023-02-19T02:38:15.590Z,3.92
2023-02-19T02:40:48.935Z,3.93
2023-02-19T02:43:23.626Z,3.93
2023-02-19T02:45:58.728Z,3.94
2023-02-19T02:48:41.374Z,3.97
2023-02-19T02:51:17.123Z,3.95
2023-02-19T02:54:25.619Z,3.94
2023-02-19T02:57:04.755Z,3.93
2023-02-19T02:59:42.862Z,3.93
2023-02-19T03:02:19.088Z,3.93
2023-02-19T03:05:15.837Z,3.94
2023-02-19T03:07:51.552Z,3.93
2023-02-19T03:10:28.272Z,3.94
2023-02-19T03:13:21.127Z,3.98
2023-02-19T03:16:15.185Z,4.00
2023-02-19T03:19:11.671Z,4.00
2023-02-19T03:21:47.212Z,4.03
2023-02-19T03:24:40.074Z,4.03
2023-02-19T03:27:13.712Z,4.03
2023-02-19T03:29:52.758Z,4.02
2023-02-19T03:32:27.010Z,4.02
2023-02-19T03:35:07.463Z,4.00
2023-02-19T03:37:43.114Z,4.00
2023-02-19T03:40:17.976Z,4.02
2023-02-19T03:42:57.751Z,4.03
2023-02-19T03:45:41.659Z,4.02
2023-02-19T03:48:25.258Z,4.00
2023-02-19T03:51:06.659Z,3.98
2023-02-19T03:53:47.300Z,3.95
2023-02-19T03:56:23.431Z,3.94
2023-02-19T03:58:58.858Z,3.92
2023-02-19T04:01:33.576Z,3.90
2023-02-19T04:04:10.449Z,3.89
2023-02-19T04:06:52.742Z,3.89
2023-02-19T04:09:28.558Z,3.88
2023-02-19T04:12:12.168Z,3.86
2023-02-19T04:14:49.589Z,3.86
2023-02-19T04:17:24.920Z,3.85
2023-02-19T04:20:00.144Z,3.83
2023-02-19T04:22:36.169Z,3.84
2023-02-19T04:25:14.873Z,3.82
2023-02-19T04:27:50.930Z,3.82
2023-02-19T04:30:23.766Z,3.81
2023-02-19T04:32:58.023Z,3.80
2023-02-19T04:35:32.165Z,3.80
2023-02-19T04:38:07.994Z,3.79
2023-02-19T04:40:40.686Z,3.78
2023-02-19T04:43:16.593Z,3.76
2023-02-19T04:45:49.516Z,3.76
2023-02-19T04:48:23.489Z,3.75
2023-02-19T04:50:58.324Z,3.75
2023-02-19T04:53:32.494Z,3.72
2023-02-19T04:56:10.538Z,3.69
2023-02-19T04:58:44.634Z,3.64
2023-02-19T05:01:17.402Z,3.62
2023-02-19T05:03:50.276Z,3.61
2023-02-19T05:06:23.101Z,3.62
2023-02-19T05:09:00.214Z,3.61
2023-02-19T05:11:35.691Z,3.61
2023-02-19T05:14:08.627Z,3.60
2023-02-19T05:16:41.602Z,3.60
2023-02-19T05:19:14.319Z,3.58
2023-02-19T05:21:47.145Z,3.57
2023-02-19T05:24:24.960Z,3.60
2023-02-19T05:26:57.772Z,3.60
2023-02-19T05:29:31.751Z,3.58
2023-02-19T05:32:04.556Z,3.55
2023-02-19T05:34:37.550Z,3.53
2023-02-19T05:37:11.341Z,3.53
2023-02-19T05:39:45.471Z,3.51
2023-02-19T05:42:20.108Z,3.50
2023-02-19T05:44:52.799Z,3.49
2023-02-19T05:47:25.677Z,3.48
2023-02-19T05:49:58.621Z,3.48
2023-02-19T05:52:35.381Z,3.51
2023-02-19T05:55:10.100Z,3.49
2023-02-19T05:57:43.809Z,3.48
2023-02-19T06:00:23.873Z,3.47
2023-02-19T06:02:56.775Z,3.48
2023-02-19T06:05:29.603Z,3.47
2023-02-19T06:08:05.380Z,3.48
2023-02-19T06:10:41.309Z,3.47
2023-02-19T06:13:15.019Z,3.46
2023-02-19T06:15:48.595Z,3.45
2023-02-19T06:18:23.211Z,3.45
2023-02-19T06:21:02.886Z,3.50
2023-02-19T06:23:36.011Z,3.53
2023-02-19T06:26:15.902Z,3.56
2023-02-19T06:28:49.073Z,3.63
2023-02-19T06:31:22.939Z,3.71
2023-02-19T06:33:56.212Z,3.74
2023-02-19T06:36:29.128Z,3.74
2023-02-19T06:39:02.173Z,3.75
2023-02-19T06:41:37.977Z,3.76
2023-02-19T06:44:12.692Z,3.79
2023-02-19T06:46:46.437Z,3.82
2023-02-19T06:49:19.255Z,3.82
2023-02-19T06:51:52.079Z,3.82
2023-02-19T06:54:25.809Z,3.81
2023-02-19T06:57:01.504Z,3.80
2023-02-19T06:59:36.466Z,3.78
2023-02-19T07:02:11.557Z,3.76
2023-02-19T07:04:44.395Z,3.77
2023-02-19T07:07:17.199Z,3.77
2023-02-19T07:09:52.683Z,3.80
2023-02-19T07:12:26.918Z,3.81
2023-02-19T07:15:01.999Z,3.81
2023-02-19T07:17:35.187Z,3.83
2023-02-19T07:20:08.042Z,3.86
2023-02-19T07:22:43.199Z,3.88
2023-02-19T07:25:16.152Z,3.91
2023-02-19T07:27:50.400Z,3.95
2023-02-19T07:30:25.031Z,3.98
2023-02-19T07:32:57.904Z,4.02
2023-02-19T07:35:30.678Z,4.02
2023-02-19T07:38:08.080Z,4.03
2023-02-19T07:40:42.098Z,4.07
2023-02-19T07:43:20.588Z,4.13
2023-02-19T07:45:53.868Z,4.20
2023-02-19T07:48:29.439Z,4.27
2023-02-19T07:51:02.464Z,4.31
2023-02-19T07:53:35.641Z,4.34
2023-02-19T07:56:09.386Z,4.38
2023-02-19T07:58:46.043Z,4.43
2023-02-19T08:01:19.740Z,4.49
2023-02-19T08:03:51.731Z,4.47
2023-02-19T08:06:26.240Z,4.47
2023-02-19T08:09:22.720Z,4.48
2023-02-19T08:12:13.098Z,4.54
2023-02-19T08:14:48.430Z,4.60
2023-02-19T08:17:24.273Z,4.66
2023-02-19T08:19:57.125Z,4.69
2023-02-19T08:22:29.968Z,4.73
2023-02-19T08:25:02.810Z,4.77
2023-02-19T08:27:35.655Z,4.83
2023-02-19T08:30:13.300Z,4.95
2023-02-19T08:32:48.867Z,5.10
2023-02-19T08:35:22.292Z,5.19
2023-02-19T08:37:56.741Z,5.26
2023-02-19T08:40:32.356Z,5.33
2023-02-19T08:43:08.148Z,5.47
2023-02-19T08:45:45.762Z,5.58
2023-02-19T08:48:18.693Z,5.71
2023-02-19T08:50:55.535Z,5.79
2023-02-19T08:53:30.060Z,5.84
2023-02-19T08:56:05.772Z,5.83
2023-02-19T08:58:38.639Z,5.83
2023-02-19T09:01:15.491Z,5.93
2023-02-19T09:03:49.251Z,6.10
2023-02-19T09:06:22.407Z,6.35
2023-02-19T09:08:55.355Z,6.51
2023-02-19T09:11:28.682Z,6.79
2023-02-19T09:14:06.062Z,6.98
2023-02-19T09:16:40.397Z,7.39
2023-02-19T09:19:15.768Z,7.58
2023-02-19T09:21:51.925Z,7.78
2023-02-19T09:24:25.607Z,8.35
2023-02-19T09:26:58.531Z,8.89
2023-02-19T09:29:31.482Z,9.00
2023-02-19T09:32:05.857Z,9.01
2023-02-19T09:34:41.895Z,9.03
2023-02-19T09:37:14.775Z,8.92
2023-02-19T09:39:50.477Z,8.76
2023-02-19T09:42:32.834Z,8.57
2023-02-19T09:45:06.081Z,8.39
2023-02-19T09:47:40.380Z,8.25
2023-02-19T09:50:16.045Z,8.09
2023-02-19T09:52:55.571Z,8.14
2023-02-19T09:55:32.054Z,9.00
2023-02-19T09:58:09.574Z,9.48
2023-02-19T10:00:42.402Z,9.59
2023-02-19T10:03:24.330Z,9.64
2023-02-19T10:05:57.576Z,9.54
2023-02-19T10:08:32.992Z,9.35
2023-02-19T10:11:06.987Z,9.15
2023-02-19T10:13:44.182Z,8.96
2023-02-19T10:16:27.521Z,8.73
2023-02-19T10:19:04.937Z,8.62
2023-02-19T10:21:41.061Z,8.53
2023-02-19T10:24:20.153Z,8.36
2023-02-19T10:26:56.332Z,8.18
2023-02-19T10:29:34.284Z,7.97
2023-02-19T10:32:13.809Z,7.74
2023-02-19T10:34:48.158Z,7.56
2023-02-19T10:37:20.983Z,7.42
2023-02-19T10:39:53.932Z,7.37
2023-02-19T10:42:26.867Z,7.32
2023-02-19T10:45:01.982Z,7.24
2023-02-19T10:47:37.894Z,7.23
2023-02-19T10:50:27.456Z,7.28
2023-02-19T10:53:02.013Z,7.51
2023-02-19T10:55:37.817Z,7.56
2023-02-19T10:58:25.353Z,7.58
2023-02-19T11:01:11.713Z,7.58
2023-02-19T11:03:58.183Z,7.63
2023-02-19T11:06:34.717Z,7.69
2023-02-19T11:09:19.072Z,7.82
2023-02-19T11:11:53.339Z,8.26
2023-02-19T11:14:26.762Z,9.38
2023-02-19T11:17:00.547Z,9.60
2023-02-19T11:19:37.304Z,9.72
2023-02-19T11:22:31.044Z,9.97
2023-02-19T11:25:06.425Z,10.37
2023-02-19T11:27:54.589Z,10.38
2023-02-19T11:30:42.995Z,10.66
2023-02-19T11:33:25.518Z,10.58
2023-02-19T11:36:13.182Z,10.50
2023-02-19T11:38:47.705Z,10.21
2023-02-19T11:41:25.702Z,9.90
2023-02-19T11:44:08.020Z,9.59
2023-02-19T11:46:46.161Z,9.30
2023-02-19T11:49:27.619Z,9.30
2023-02-19T11:52:07.552Z,9.49
2023-02-19T11:55:09.322Z,9.41
2023-02-19T11:57:45.592Z,9.41
2023-02-19T12:00:21.882Z,9.40
2023-02-19T12:03:06.649Z,9.67
2023-02-19T12:05:46.625Z,10.14
2023-02-19T12:08:34.215Z,10.03
2023-02-19T12:11:25.649Z,10.17
2023-02-19T12:14:15.390Z,10.06
2023-02-19T12:16:52.897Z,11.34
2023-02-19T12:19:43.409Z,13.02
2023-02-19T12:22:21.983Z,13.02
2023-02-19T12:25:17.931Z,12.85
2023-02-19T12:28:05.438Z,13.96
2023-02-19T12:31:00.315Z,14.82
2023-02-19T12:33:51.604Z,15.96
2023-02-19T12:36:30.837Z,16.03
2023-02-19T12:39:08.685Z,16.95
2023-02-19T12:41:57.138Z,18.55
2023-02-19T12:44:36.767Z,19.50
2023-02-19T12:47:18.061Z,19.04
2023-02-19T12:50:03.112Z,18.09
2023-02-19T12:52:42.213Z,17.09
2023-02-19T12:55:26.820Z,17.30
2023-02-19T12:58:12.608Z,18.14
2023-02-19T13:00:50.572Z,18.66
2023-02-19T13:03:29.310Z,19.41
2023-02-19T13:06:13.679Z,19.86
2023-02-19T13:09:06.331Z,20.21
2023-02-19T13:11:46.057Z,20.63
2023-02-19T13:14:22.834Z,20.71
2023-02-19T13:17:01.067Z,20.77
2023-02-19T13:19:35.495Z,20.50
2023-02-19T13:22:42.235Z,19.46
2023-02-19T13:25:16.854Z,18.09
2023-02-19T13:27:57.022Z,17.02
2023-02-19T13:30:38.755Z,15.97
2023-02-19T13:33:34.380Z,15.04
2023-02-19T13:36:13.037Z,14.36
2023-02-19T13:38:49.103Z,14.23
2023-02-19T13:41:27.735Z,14.12
2023-02-19T13:44:02.482Z,14.45
2023-02-19T13:46:37.921Z,14.75
2023-02-19T13:49:29.057Z,15.63
2023-02-19T13:52:03.719Z,16.37
2023-02-19T13:54:40.490Z,16.32
2023-02-19T13:57:31.446Z,15.88
2023-02-19T14:00:24.275Z,15.19
2023-02-19T14:03:12.118Z,14.06
2023-02-19T14:05:58.630Z,12.95
2023-02-19T14:08:55.221Z,11.84
2023-02-19T14:11:58.055Z,11.01
2023-02-19T14:14:37.022Z,10.25
2023-02-19T14:17:24.592Z,9.76
2023-02-19T14:19:58.651Z,9.46
2023-02-19T14:23:04.386Z,9.34
2023-02-19T14:25:58.309Z,9.18
2023-02-19T14:28:36.160Z,9.03
2023-02-19T14:31:15.552Z,8.85
2023-02-19T14:33:52.140Z,8.69
2023-02-19T14:36:32.511Z,8.49
2023-02-19T14:39:07.048Z,8.28
2023-02-19T14:41:41.468Z,8.14
2023-02-19T14:44:17.331Z,7.97
2023-02-19T14:46:58.954Z,7.81
2023-02-19T14:49:36.049Z,7.68
2023-02-19T14:52:13.690Z,7.53
2023-02-19T14:54:50.855Z,7.37
2023-02-19T14:57:26.705Z,7.23
2023-02-19T15:00:00.535Z,7.12
2023-02-19T15:02:43.442Z,7.06
2023-02-19T15:05:16.787Z,7.02
2023-02-19T15:07:49.815Z,6.94
2023-02-19T15:10:24.280Z,6.82
2023-02-19T15:12:58.342Z,6.73
2023-02-19T15:15:33.048Z,6.66
2023-02-19T15:18:07.794Z,6.59
2023-02-19T15:20:42.931Z,6.51
2023-02-19T15:23:19.830Z,6.42
2023-02-19T15:25:58.095Z,6.33
2023-02-19T15:28:34.575Z,6.26
2023-02-19T15:31:16.872Z,6.16
2023-02-19T15:33:52.048Z,6.08
2023-02-19T15:36:27.270Z,6.00
2023-02-19T15:39:14.796Z,5.92
2023-02-19T15:41:51.928Z,5.88
2023-02-19T15:44:36.633Z,5.85
2023-02-19T15:47:13.158Z,5.81
2023-02-19T15:49:53.560Z,5.80
2023-02-19T15:52:33.832Z,5.78
2023-02-19T15:55:12.939Z,5.75
2023-02-19T15:57:49.216Z,5.72
2023-02-19T16:00:24.553Z,5.68
2023-02-19T16:02:58.386Z,5.61
2023-02-19T16:05:39.376Z,5.55
2023-02-19T16:08:19.655Z,5.45
2023-02-19T16:10:59.544Z,5.36
2023-02-19T16:13:33.595Z,5.28
2023-02-19T16:16:16.251Z,5.19
2023-02-19T16:18:50.922Z,5.11
2023-02-19T16:21:27.193Z,5.02
2023-02-19T16:24:07.878Z,4.94
2023-02-19T16:26:41.346Z,4.85
2023-02-19T16:29:18.656Z,4.79
2023-02-19T16:31:52.566Z,4.72
2023-02-19T16:34:34.274Z,4.65
2023-02-19T16:37:25.102Z,4.60
2023-02-19T16:40:19.252Z,4.57
2023-02-19T16:43:26.640Z,4.52
2023-02-19T16:46:00.566Z,4.47
2023-02-19T16:48:33.444Z,4.43
2023-02-19T16:51:07.127Z,4.38
2023-02-19T16:53:39.918Z,4.32
2023-02-19T16:56:18.548Z,4.29
2023-02-19T16:58:51.622Z,4.24
2023-02-19T17:01:24.719Z,4.21
2023-02-19T17:04:01.728Z,4.17
2023-02-19T17:06:34.817Z,4.13
2023-02-19T17:09:08.538Z,4.10
2023-02-19T17:11:42.639Z,4.08
2023-02-19T17:14:15.367Z,4.04
2023-02-19T17:16:48.196Z,4.03
2023-02-19T17:19:22.301Z,4.01
2023-02-19T17:21:55.025Z,3.98
2023-02-19T17:24:27.788Z,3.95
2023-02-19T17:27:02.085Z,3.92
2023-02-19T17:29:37.096Z,3.89
2023-02-19T17:32:10.056Z,3.87
2023-02-19T17:34:42.915Z,3.84
2023-02-19T17:37:15.763Z,3.81
2023-02-19T17:39:48.566Z,3.78
2023-02-19T17:42:23.547Z,3.77
2023-02-19T17:44:56.795Z,3.76
2023-02-19T17:47:29.537Z,3.71
2023-02-19T17:50:02.401Z,3.67
2023-02-19T17:52:35.149Z,3.64
2023-02-19T17:55:08.119Z,3.60
2023-02-19T17:57:42.302Z,3.56
2023-02-19T18:00:15.802Z,3.54
2023-02-19T18:02:48.643Z,3.52
2023-02-19T18:05:21.357Z,3.50
2023-02-19T18:07:54.199Z,3.47
2023-02-19T18:10:27.127Z,3.43
2023-02-19T18:13:01.238Z,3.42
2023-02-19T18:15:33.923Z,3.40
2023-02-19T18:18:06.729Z,3.37
2023-02-19T18:20:39.445Z,3.33
2023-02-19T18:23:12.276Z,3.30
2023-02-19T18:25:47.292Z,3.27
2023-02-19T18:28:21.551Z,3.23
2023-02-19T18:30:54.626Z,3.22
2023-02-19T18:33:27.604Z,3.17
2023-02-19T18:36:00.317Z,3.13
2023-02-19T18:38:33.195Z,3.12
2023-02-19T18:41:06.149Z,3.09
2023-02-19T18:43:41.313Z,3.06
2023-02-19T18:46:14.148Z,3.04
2023-02-19T18:48:47.385Z,3.01
2023-02-19T18:51:23.477Z,3.00
2023-02-19T18:53:56.222Z,2.98
2023-02-19T18:56:30.552Z,2.98
2023-02-19T18:59:04.697Z,2.96
2023-02-19T19:01:38.037Z,2.91
2023-02-19T19:04:10.837Z,2.89
2023-02-19T19:06:43.623Z,2.87
2023-02-19T19:09:16.385Z,2.88
2023-02-19T19:11:49.147Z,2.87
2023-02-19T19:14:23.264Z,2.85
2023-02-19T19:16:56.046Z,2.83
2023-02-19T19:19:28.830Z,2.82
2023-02-19T19:22:01.582Z,2.80
2023-02-19T19:24:34.309Z,2.79
2023-02-19T19:27:07.373Z,2.77
2023-02-19T19:29:44.321Z,2.75
2023-02-19T19:32:17.257Z,2.73
2023-02-19T19:34:49.972Z,2.71
2023-02-19T19:37:22.751Z,2.69
2023-02-19T19:39:55.516Z,2.67
2023-02-19T19:42:28.346Z,2.66
2023-02-19T19:45:05.502Z,2.63
2023-02-19T19:47:38.280Z,2.62
2023-02-19T19:50:12.150Z,2.59
2023-02-19T19:52:45.187Z,2.59
2023-02-19T19:55:18.068Z,2.56
2023-02-19T19:57:50.828Z,2.52
2023-02-19T20:00:25.136Z,2.51
2023-02-19T20:02:57.984Z,2.50
2023-02-19T20:05:30.784Z,2.48
2023-02-19T20:08:03.529Z,2.46
2023-02-19T20:10:36.285Z,2.45
2023-02-19T20:13:09.068Z,2.42
2023-02-19T20:15:43.246Z,2.40
2023-02-19T20:18:16.128Z,2.36
2023-02-19T20:20:48.894Z,2.37
2023-02-19T20:23:21.670Z,2.38
2023-02-19T20:25:54.395Z,2.36
2023-02-19T20:28:27.196Z,2.33
2023-02-19T20:31:01.331Z,2.31
2023-02-19T20:33:34.057Z,2.30
2023-02-19T20:36:07.278Z,2.28
2023-02-19T20:38:40.107Z,2.24
2023-02-19T20:41:13.117Z,2.22
2023-02-19T20:43:45.953Z,2.20
2023-02-19T20:46:20.845Z,2.17
2023-02-19T20:48:53.722Z,2.15
2023-02-19T20:51:26.438Z,2.13
2023-02-19T20:54:03.719Z,2.12
2023-02-19T20:56:43.507Z,2.08
2023-02-19T20:59:17.248Z,2.08
2023-02-19T21:01:51.453Z,2.07
2023-02-19T21:04:26.143Z,2.06
2023-02-19T21:06:59.029Z,2.03
2023-02-19T21:09:32.206Z,2.00
2023-02-19T21:12:05.174Z,1.96
2023-02-19T21:14:38.048Z,1.94
2023-02-19T21:17:12.236Z,1.93
2023-02-19T21:19:44.972Z,1.93
2023-02-19T21:22:17.734Z,1.90
2023-02-19T21:24:52.089Z,1.90
2023-02-19T21:27:24.925Z,1.91
2023-02-19T21:29:57.819Z,1.90
2023-02-19T21:32:32.018Z,1.88
2023-02-19T21:35:05.909Z,1.87
2023-02-19T21:37:42.073Z,1.86
2023-02-19T21:40:15.033Z,1.84
2023-02-19T21:42:47.837Z,1.80
2023-02-19T21:45:20.640Z,1.78
2023-02-19T21:47:57.602Z,1.75
2023-02-19T21:50:30.357Z,1.72
2023-02-19T21:53:05.452Z,1.69
2023-02-19T21:55:38.635Z,1.67
2023-02-19T21:58:12.494Z,1.63
2023-02-19T22:00:45.315Z,1.60
2023-02-19T22:03:19.469Z,1.59
2023-02-19T22:05:52.253Z,1.56
2023-02-19T22:08:25.052Z,1.56
2023-02-19T22:10:59.778Z,1.54
2023-02-19T22:13:32.558Z,1.54
2023-02-19T22:16:05.513Z,1.52
2023-02-19T22:18:42.197Z,1.51
2023-02-19T22:21:15.091Z,1.51
2023-02-19T22:23:48.207Z,1.50
2023-02-19T22:26:21.594Z,1.49
2023-02-19T22:28:54.681Z,1.48
2023-02-19T22:31:28.896Z,1.47
2023-02-19T22:34:05.320Z,1.48
2023-02-19T22:36:38.889Z,1.47
2023-02-19T22:39:17.532Z,1.45
2023-02-19T22:41:50.736Z,1.45
2023-02-19T22:44:23.713Z,1.44
2023-02-19T22:46:57.068Z,1.44
2023-02-19T22:49:31.222Z,1.45
2023-02-19T22:52:05.426Z,1.47
2023-02-19T22:54:38.776Z,1.48
2023-02-19T22:57:11.474Z,1.52
2023-02-19T22:59:44.299Z,1.57
2023-02-19T23:02:18.568Z,1.63
2023-02-19T23:04:54.625Z,1.70
2023-02-19T23:07:27.558Z,1.76
2023-02-19T23:10:00.391Z,1.81
2023-02-19T23:12:33.290Z,1.88
2023-02-19T23:15:06.581Z,1.91
2023-02-19T23:17:39.361Z,1.94
2023-02-19T23:20:14.042Z,2.00
2023-02-19T23:22:46.785Z,2.08
2023-02-19T23:25:19.697Z,2.12
2023-02-19T23:27:52.840Z,2.17
2023-02-19T23:30:26.115Z,2.21
2023-02-19T23:33:00.786Z,2.26
2023-02-19T23:35:35.081Z,2.31
2023-02-19T23:38:09.812Z,2.33
2023-02-19T23:40:42.578Z,2.35
2023-02-19T23:43:15.305Z,2.40
2023-02-19T23:45:48.327Z,2.45
2023-02-19T23:48:21.225Z,2.48
2023-02-19T23:50:55.318Z,2.49
2023-02-19T23:53:28.283Z,2.51
2023-02-19T23:56:01.009Z,2.52
2023-02-19T23:58:33.784Z,2.55
